createdAt,value
2023-01-12T00:01:50.020Z,45.60
2023-01-12T00:04:21.043Z,49.90
2023-01-12T00:06:52.749Z,54.20
2023-01-12T00:09:24.265Z,57.20
2023-01-12T00:11:55.191Z,68.10
2023-01-12T00:14:26.348Z,57.40
2023-01-12T00:16:57.375Z,53.60
2023-01-12T00:19:28.831Z,52.40
2023-01-12T00:22:02.117Z,58.50
2023-01-12T00:27:02.873Z,62.80
2023-01-12T00:29:33.702Z,62.30
2023-01-12T00:32:04.635Z,62.20
2023-01-12T00:34:35.437Z,62.90
2023-01-12T00:37:06.109Z,63.80
2023-01-12T00:39:40.711Z,60.90
2023-01-12T00:42:31.948Z,67.10
2023-01-12T00:45:20.184Z,66.00
2023-01-12T00:47:51.087Z,61.90
2023-01-12T00:50:22.062Z,62.90
2023-01-12T00:52:52.767Z,64.40
2023-01-12T00:55:23.630Z,70.50
2023-01-12T00:57:54.686Z,76.60
2023-01-12T01:00:26.015Z,72.10
2023-01-12T01:02:56.626Z,63.80
2023-01-12T01:05:27.448Z,73.50
2023-01-12T01:07:58.428Z,64.90
2023-01-12T01:10:29.219Z,63.20
2023-01-12T01:12:59.957Z,62.60
2023-01-12T01:15:31.443Z,63.60
2023-01-12T01:18:02.095Z,68.00
2023-01-12T01:20:36.078Z,72.40
2023-01-12T01:23:06.921Z,66.50
2023-01-12T01:25:38.103Z,67.70
2023-01-12T01:28:08.999Z,65.90
2023-01-12T01:30:39.770Z,63.30
2023-01-12T01:33:10.418Z,63.30
2023-01-12T01:35:41.200Z,63.30
2023-01-12T01:38:11.949Z,72.80
2023-01-12T01:40:44.684Z,76.30
2023-01-12T01:43:17.449Z,65.80
2023-01-12T01:45:52.279Z,67.80
2023-01-12T01:48:24.523Z,65.00
2023-01-12T01:50:58.493Z,72.10
2023-01-12T01:53:33.321Z,66.30
2023-01-12T01:56:05.954Z,69.40
2023-01-12T01:58:38.082Z,70.80
2023-01-12T02:01:09.353Z,68.60
2023-01-12T02:03:41.055Z,68.80
2023-01-12T02:06:11.911Z,68.50
2023-01-12T02:08:46.648Z,76.40
2023-01-12T02:11:31.195Z,76.70
2023-01-12T02:14:19.344Z,70.90
2023-01-12T02:16:57.332Z,68.00
2023-01-12T02:19:34.853Z,64.70
2023-01-12T02:22:18.672Z,63.80
2023-01-12T02:24:58.044Z,70.90
2023-01-12T02:27:35.422Z,76.70
2023-01-12T02:30:22.225Z,75.90
2023-01-12T02:32:56.880Z,64.20
2023-01-12T02:35:30.027Z,64.00
2023-01-12T02:38:06.286Z,62.50
2023-01-12T02:40:41.960Z,74.10
2023-01-12T02:43:16.279Z,72.60
2023-01-12T02:45:51.302Z,75.30
2023-01-12T02:48:26.235Z,75.30
2023-01-12T02:50:58.985Z,70.90
2023-01-12T02:53:32.307Z,64.90
2023-01-12T02:56:04.875Z,71.30
2023-01-12T02:58:36.888Z,66.20
2023-01-12T03:01:09.793Z,68.30
2023-01-12T03:03:41.257Z,72.90
2023-01-12T03:06:16.102Z,74.30
2023-01-12T03:08:49.144Z,74.80
2023-01-12T03:11:20.463Z,73.50
2023-01-12T03:13:52.408Z,67.20
2023-01-12T03:16:25.336Z,60.40
2023-01-12T03:18:57.756Z,69.30
2023-01-12T03:21:31.235Z,73.80
2023-01-12T03:24:05.673Z,71.70
2023-01-12T03:26:37.417Z,66.60
2023-01-12T03:29:10.813Z,62.30
2023-01-12T03:31:41.953Z,70.80
2023-01-12T03:34:12.935Z,64.10
2023-01-12T03:36:47.854Z,73.70
2023-01-12T03:39:24.036Z,77.50
2023-01-12T03:41:58.151Z,67.70
2023-01-12T03:44:34.949Z,63.10
2023-01-12T03:47:08.661Z,63.40
2023-01-12T03:49:43.848Z,57.90
2023-01-12T03:52:15.777Z,66.30
2023-01-12T03:54:47.739Z,72.90
2023-01-12T03:57:20.314Z,75.30
2023-01-12T03:59:51.253Z,64.70
2023-01-12T04:02:22.915Z,58.80
2023-01-12T04:04:53.839Z,60.00
2023-01-12T04:07:24.892Z,59.40
2023-01-12T04:09:57.350Z,61.10
2023-01-12T04:12:28.579Z,60.60
2023-01-12T04:14:59.546Z,63.30
2023-01-12T04:17:30.492Z,63.90
2023-01-12T04:20:01.418Z,63.60
2023-01-12T04:22:47.211Z,63.90
2023-01-12T04:25:20.759Z,63.70
2023-01-12T04:27:53.504Z,66.50
2023-01-12T04:30:27.526Z,69.30
2023-01-12T04:32:58.474Z,64.90
2023-01-12T04:35:29.638Z,62.80
2023-01-12T04:38:00.119Z,59.30
2023-01-12T04:40:31.294Z,61.80
2023-01-12T04:43:02.490Z,66.80
2023-01-12T04:45:34.526Z,64.50
2023-01-12T04:48:06.155Z,60.60
2023-01-12T04:50:38.273Z,62.40
2023-01-12T04:53:09.531Z,65.10
2023-01-12T04:55:42.521Z,63.00
2023-01-12T04:58:13.763Z,66.60
2023-01-12T05:00:45.205Z,66.40
2023-01-12T05:03:16.917Z,64.30
2023-01-12T05:05:48.197Z,66.00
2023-01-12T05:08:36.338Z,61.60
2023-01-12T05:11:08.027Z,55.60
2023-01-12T05:13:38.479Z,55.60
2023-01-12T05:16:14.101Z,54.80
2023-01-12T05:18:45.289Z,53.20
2023-01-12T05:21:18.098Z,49.60
2023-01-12T05:23:48.725Z,53.00
2023-01-12T05:26:19.716Z,53.00
2023-01-12T05:28:50.977Z,48.80
2023-01-12T05:31:22.011Z,50.20
2023-01-12T05:33:52.537Z,54.50
2023-01-12T05:36:25.705Z,48.70
2023-01-12T05:38:56.969Z,49.40
2023-01-12T05:41:28.133Z,49.90
2023-01-12T05:43:59.107Z,58.10
2023-01-12T05:46:31.111Z,44.30
2023-01-12T05:49:01.606Z,40.60
2023-01-12T05:51:32.830Z,43.50
2023-01-12T05:54:04.146Z,30.40
2023-01-12T05:56:34.861Z,34.10
2023-01-12T05:59:05.799Z,35.80
2023-01-12T06:01:36.855Z,30.00
2023-01-12T06:04:07.533Z,29.30
2023-01-12T06:06:38.456Z,37.40
2023-01-12T06:09:09.413Z,28.80
2023-01-12T06:11:58.100Z,29.00
2023-01-12T06:14:28.765Z,28.00
2023-01-12T06:16:59.721Z,33.70
2023-01-12T06:19:30.453Z,30.60
2023-01-12T06:22:01.171Z,33.90
2023-01-12T06:24:31.839Z,32.10
2023-01-12T06:27:02.815Z,29.50
2023-01-12T06:29:33.456Z,30.10
2023-01-12T06:32:04.587Z,28.30
2023-01-12T06:34:38.041Z,26.90
2023-01-12T06:37:12.130Z,29.40
2023-01-12T06:39:42.673Z,29.70
2023-01-12T06:42:32.986Z,31.30
2023-01-12T06:45:04.972Z,29.30
2023-01-12T06:47:35.753Z,27.40
2023-01-12T06:50:06.951Z,33.40
2023-01-12T06:52:37.884Z,36.50
2023-01-12T06:55:09.089Z,31.90
2023-01-12T06:57:39.933Z,39.30
2023-01-12T07:00:13.306Z,37.50
2023-01-12T07:05:13.415Z,40.10
2023-01-12T07:07:44.565Z,35.00
2023-01-12T07:10:15.661Z,39.60
2023-01-12T07:12:46.271Z,38.00
2023-01-12T07:15:17.319Z,41.00
2023-01-12T07:17:48.147Z,41.50
2023-01-12T07:20:19.537Z,42.30
2023-01-12T07:22:50.339Z,39.50
2023-01-12T07:25:21.367Z,38.20
2023-01-12T07:27:53.213Z,40.90
2023-01-12T07:30:24.664Z,44.10
2023-01-12T07:32:55.320Z,41.20
2023-01-12T07:35:26.047Z,41.80
2023-01-12T07:37:56.774Z,44.00
2023-01-12T07:40:27.700Z,41.60
2023-01-12T07:43:02.016Z,43.50
2023-01-12T07:45:33.984Z,44.10
2023-01-12T07:48:04.711Z,43.60
2023-01-12T07:50:37.979Z,43.30
2023-01-12T07:53:08.703Z,42.80
2023-01-12T07:55:43.760Z,39.70
2023-01-12T07:58:14.365Z,44.20
2023-01-12T08:00:45.216Z,45.80
2023-01-12T08:03:16.053Z,52.80
2023-01-12T08:05:46.893Z,42.90
2023-01-12T08:08:18.008Z,52.10
2023-01-12T08:10:50.359Z,44.20
2023-01-12T08:13:23.524Z,45.50
2023-01-12T08:15:54.941Z,43.00
2023-01-12T08:18:29.252Z,38.90
2023-01-12T08:21:01.636Z,34.50
2023-01-12T08:23:33.646Z,39.50
2023-01-12T08:26:06.072Z,38.90
2023-01-12T08:28:38.504Z,35.90
2023-01-12T08:31:10.587Z,41.50
2023-01-12T08:33:41.380Z,36.00
2023-01-12T08:38:49.454Z,36.90
2023-01-12T08:41:37.780Z,33.70
2023-01-12T08:44:09.925Z,31.40
2023-01-12T08:46:47.234Z,37.30
2023-01-12T08:49:18.811Z,39.30
2023-01-12T08:51:49.427Z,37.50
2023-01-12T08:54:21.347Z,39.80
2023-01-12T08:56:53.607Z,35.10
2023-01-12T08:59:24.347Z,36.10
2023-01-12T09:01:56.543Z,34.10
2023-01-12T09:04:27.946Z,32.00
2023-01-12T09:07:00.197Z,36.80
2023-01-12T09:09:31.827Z,33.40
2023-01-12T09:12:02.932Z,32.90
2023-01-12T09:14:38.828Z,35.40
2023-01-12T09:17:10.167Z,31.30
2023-01-12T09:19:40.783Z,37.30
2023-01-12T09:22:12.251Z,35.20
2023-01-12T09:24:42.911Z,30.80
2023-01-12T09:27:13.943Z,35.60
2023-01-12T09:29:44.612Z,32.30
2023-01-12T09:32:16.900Z,31.90
2023-01-12T09:34:50.218Z,32.20
2023-01-12T09:37:22.019Z,30.90
2023-01-12T09:39:52.915Z,32.40
2023-01-12T09:42:53.554Z,30.30
2023-01-12T09:45:41.833Z,30.00
2023-01-12T09:48:14.317Z,31.90
2023-01-12T09:50:50.120Z,33.30
2023-01-12T09:53:22.643Z,27.00
2023-01-12T09:55:55.227Z,23.50
2023-01-12T09:58:38.544Z,23.80
2023-01-12T10:01:20.538Z,22.00
2023-01-12T10:04:01.414Z,23.30
2023-01-12T10:06:33.246Z,19.30
2023-01-12T10:09:06.000Z,19.60
2023-01-12T10:11:43.814Z,18.00
2023-01-12T10:14:23.554Z,18.10
2023-01-12T10:16:59.069Z,14.80
2023-01-12T10:19:32.948Z,12.50
2023-01-12T10:22:10.957Z,12.60
2023-01-12T10:24:42.269Z,9.80
2023-01-12T10:27:16.082Z,8.70
2023-01-12T10:29:48.126Z,8.20
2023-01-12T10:32:20.218Z,6.90
2023-01-12T10:34:51.385Z,7.30
2023-01-12T10:37:22.558Z,6.60
2023-01-12T10:39:54.935Z,7.10
2023-01-12T10:42:44.369Z,6.50
2023-01-12T10:45:17.540Z,7.50
2023-01-12T10:47:49.618Z,7.80
2023-01-12T10:50:28.850Z,8.90
2023-01-12T10:53:01.961Z,7.50
2023-01-12T10:55:35.666Z,8.60
2023-01-12T10:58:07.185Z,8.10
2023-01-12T11:00:37.885Z,8.20
2023-01-12T11:03:26.738Z,6.60
2023-01-12T11:06:13.392Z,7.00
2023-01-12T11:08:44.344Z,7.60
2023-01-12T11:11:23.843Z,8.10
2023-01-12T11:13:56.380Z,8.30
2023-01-12T11:16:29.044Z,8.90
2023-01-12T11:19:11.795Z,9.30
2023-01-12T11:21:44.297Z,6.70
2023-01-12T11:24:16.925Z,11.20
2023-01-12T11:26:49.949Z,8.60
2023-01-12T11:29:29.408Z,9.00
2023-01-12T11:32:02.699Z,7.80
2023-01-12T11:34:37.254Z,5.60
2023-01-12T11:37:12.011Z,6.30
2023-01-12T11:39:43.844Z,8.90
2023-01-12T11:42:37.477Z,6.40
2023-01-12T11:45:10.618Z,6.00
2023-01-12T11:47:44.229Z,5.60
2023-01-12T11:50:18.120Z,5.90
2023-01-12T11:52:49.012Z,7.00
2023-01-12T11:55:25.141Z,13.90
2023-01-12T11:58:01.960Z,10.40
2023-01-12T12:00:46.689Z,7.30
2023-01-12T12:03:34.511Z,7.10
2023-01-12T12:06:08.643Z,5.60
2023-01-12T12:08:45.808Z,7.50
2023-01-12T12:11:20.883Z,9.20
2023-01-12T12:13:55.192Z,7.50
2023-01-12T12:16:29.570Z,9.50
2023-01-12T12:19:15.399Z,5.90
2023-01-12T12:21:49.416Z,7.90
2023-01-12T12:24:31.812Z,6.90
2023-01-12T12:27:08.014Z,7.80
2023-01-12T12:29:45.248Z,7.10
2023-01-12T12:32:22.714Z,8.30
2023-01-12T12:35:00.351Z,7.40
2023-01-12T12:37:36.550Z,7.90
2023-01-12T12:40:14.354Z,8.40
2023-01-12T12:43:17.822Z,5.90
2023-01-12T12:45:51.778Z,6.90
2023-01-12T12:48:24.197Z,8.70
2023-01-12T12:50:58.677Z,5.40
2023-01-12T12:53:31.038Z,6.40
2023-01-12T12:56:02.804Z,7.30
2023-01-12T12:58:44.237Z,7.10
2023-01-12T13:01:39.609Z,9.90
2023-01-12T13:04:10.986Z,13.70
2023-01-12T13:06:43.457Z,8.20
2023-01-12T13:09:31.145Z,6.70
2023-01-12T13:12:19.315Z,8.40
2023-01-12T13:15:03.418Z,9.10
2023-01-12T13:17:44.362Z,6.80
2023-01-12T13:20:36.144Z,7.00
2023-01-12T13:23:31.631Z,6.70
2023-01-12T13:26:05.229Z,13.40
2023-01-12T13:28:36.600Z,9.30
2023-01-12T13:31:29.727Z,8.90
2023-01-12T13:34:13.871Z,9.70
2023-01-12T13:36:44.815Z,6.30
2023-01-12T13:39:16.537Z,6.60
2023-01-12T13:42:04.922Z,7.30
2023-01-12T13:44:36.504Z,8.00
2023-01-12T13:47:11.796Z,6.90
2023-01-12T13:49:47.290Z,8.80
2023-01-12T13:52:30.190Z,9.80
2023-01-12T13:55:01.373Z,6.90
2023-01-12T13:57:33.246Z,8.40
2023-01-12T14:00:09.398Z,5.70
2023-01-12T14:02:43.810Z,6.60
2023-01-12T14:05:21.511Z,8.90
2023-01-12T14:08:00.811Z,9.70
2023-01-12T14:10:38.137Z,5.00
2023-01-12T14:13:25.166Z,8.40
2023-01-12T14:16:19.594Z,8.20
2023-01-12T14:18:50.902Z,5.50
2023-01-12T14:21:23.611Z,9.00
2023-01-12T14:23:54.810Z,7.10
2023-01-12T14:26:27.352Z,6.80
2023-01-12T14:28:58.632Z,6.50
2023-01-12T14:31:32.244Z,8.80
2023-01-12T14:34:05.028Z,7.40
2023-01-12T14:36:37.649Z,8.00
2023-01-12T14:39:10.590Z,7.10
2023-01-12T14:41:59.132Z,9.90
2023-01-12T14:44:47.579Z,10.60
2023-01-12T14:47:26.826Z,10.30
2023-01-12T14:49:58.515Z,8.30
2023-01-12T14:52:31.865Z,7.20
2023-01-12T14:55:16.217Z,12.60
2023-01-12T14:57:50.341Z,6.90
2023-01-12T15:00:23.465Z,5.90
2023-01-12T15:02:56.358Z,7.30
2023-01-12T15:05:30.888Z,6.30
2023-01-12T15:08:02.547Z,7.10
2023-01-12T15:10:34.190Z,7.60
2023-01-12T15:13:27.419Z,7.50
2023-01-12T15:16:16.006Z,7.80
2023-01-12T15:19:04.655Z,8.70
2023-01-12T15:21:53.421Z,7.30
2023-01-12T15:24:43.058Z,7.90
2023-01-12T15:27:15.292Z,9.60
2023-01-12T15:29:46.540Z,9.80
2023-01-12T15:32:21.811Z,8.30
2023-01-12T15:34:53.219Z,8.10
2023-01-12T15:37:24.218Z,9.00
2023-01-12T15:39:56.720Z,9.20
2023-01-12T15:42:27.277Z,9.90
2023-01-12T15:44:58.111Z,9.50
2023-01-12T15:47:29.483Z,10.90
2023-01-12T15:50:00.275Z,12.90
2023-01-12T15:52:33.108Z,9.30
2023-01-12T15:55:04.534Z,12.00
2023-01-12T15:57:35.671Z,11.00
2023-01-12T16:00:07.208Z,9.50
2023-01-12T16:02:39.402Z,11.50
2023-01-12T16:05:12.739Z,14.40
2023-01-12T16:07:43.677Z,9.80
2023-01-12T16:10:15.333Z,8.10
2023-01-12T16:12:46.312Z,13.70
2023-01-12T16:15:18.847Z,13.20
2023-01-12T16:17:49.738Z,11.10
2023-01-12T16:20:21.334Z,17.30
2023-01-12T16:22:52.211Z,11.90
2023-01-12T16:25:22.920Z,13.40
2023-01-12T16:27:57.636Z,9.80
2023-01-12T16:30:29.027Z,13.30
2023-01-12T16:33:00.527Z,13.50
2023-01-12T16:35:34.109Z,17.00
2023-01-12T16:38:05.078Z,13.10
2023-01-12T16:40:36.350Z,13.00
2023-01-12T16:43:06.921Z,17.70
2023-01-12T16:45:41.034Z,18.70
2023-01-12T16:48:11.841Z,17.60
2023-01-12T16:50:42.937Z,17.30
2023-01-12T16:53:14.424Z,13.60
2023-01-12T16:55:45.323Z,18.60
2023-01-12T16:58:16.110Z,18.20
2023-01-12T17:00:47.130Z,17.20
2023-01-12T17:03:18.148Z,18.20
2023-01-12T17:05:49.218Z,19.20
2023-01-12T17:08:20.296Z,17.30
2023-01-12T17:10:51.607Z,17.10
2023-01-12T17:13:22.961Z,16.30
2023-01-12T17:15:54.565Z,17.70
2023-01-12T17:18:26.462Z,17.60
2023-01-12T17:21:04.994Z,21.00
2023-01-12T17:23:36.275Z,14.80
2023-01-12T17:26:08.810Z,24.10
2023-01-12T17:28:39.742Z,20.00
2023-01-12T17:31:11.381Z,19.60
2023-01-12T17:33:42.740Z,18.20
2023-01-12T17:36:14.225Z,18.10
2023-01-12T17:38:45.223Z,14.00
2023-01-12T17:41:31.199Z,17.30
2023-01-12T17:44:02.981Z,15.00
2023-01-12T17:46:34.637Z,14.20
2023-01-12T17:49:06.235Z,15.10
2023-01-12T17:51:38.467Z,20.30
2023-01-12T17:54:10.116Z,14.20
2023-01-12T17:56:41.118Z,20.00
2023-01-12T17:59:14.103Z,15.60
2023-01-12T18:01:45.513Z,17.50
2023-01-12T18:04:16.577Z,16.50
2023-01-12T18:06:47.424Z,16.00
2023-01-12T18:09:18.509Z,19.40
2023-01-12T18:11:49.751Z,19.10
2023-01-12T18:14:21.912Z,15.50
2023-01-12T18:16:52.885Z,14.90
2023-01-12T18:19:23.791Z,18.60
2023-01-12T18:21:54.590Z,15.40
2023-01-12T18:24:25.640Z,18.60
2023-01-12T18:26:56.555Z,18.40
2023-01-12T18:29:27.541Z,16.70
2023-01-12T18:31:58.490Z,21.80
2023-01-12T18:34:30.050Z,19.20
2023-01-12T18:37:01.100Z,18.10
2023-01-12T18:39:31.963Z,19.70
2023-01-12T18:42:20.238Z,25.40
2023-01-12T18:44:51.038Z,16.60
2023-01-12T18:47:44.974Z,21.30
2023-01-12T18:50:33.214Z,20.20
2023-01-12T18:53:21.762Z,18.90
2023-01-12T18:55:55.335Z,24.00
2023-01-12T18:58:29.268Z,22.80
2023-01-12T19:01:01.225Z,22.90
2023-01-12T19:03:32.590Z,21.30
2023-01-12T19:06:20.885Z,19.50
2023-01-12T19:09:13.893Z,18.60
2023-01-12T19:11:49.531Z,17.70
2023-01-12T19:14:38.287Z,17.30
2023-01-12T19:17:28.590Z,19.30
2023-01-12T19:20:00.303Z,18.10
2023-01-12T19:22:48.805Z,15.50
2023-01-12T19:25:37.858Z,19.30
2023-01-12T19:28:30.551Z,19.40
2023-01-12T19:31:02.166Z,19.30
2023-01-12T19:33:33.613Z,19.10
2023-01-12T19:36:08.122Z,18.80
2023-01-12T19:38:42.830Z,20.40
2023-01-12T19:41:33.778Z,17.10
2023-01-12T19:44:06.083Z,22.10
2023-01-12T19:46:36.887Z,20.00
2023-01-12T19:49:08.313Z,19.20
2023-01-12T19:51:40.777Z,19.80
2023-01-12T19:54:11.618Z,21.60
2023-01-12T19:56:47.585Z,20.40
2023-01-12T19:59:22.540Z,23.20
2023-01-12T20:01:54.217Z,23.00
2023-01-12T20:04:25.379Z,20.70
2023-01-12T20:06:57.090Z,21.00
2023-01-12T20:09:28.412Z,19.40
2023-01-12T20:12:00.115Z,21.50
2023-01-12T20:14:31.407Z,19.20
2023-01-12T20:17:02.174Z,19.20
2023-01-12T20:19:34.025Z,19.20
2023-01-12T20:22:05.165Z,22.00
2023-01-12T20:24:36.160Z,27.10
2023-01-12T20:27:07.492Z,22.30
2023-01-12T20:29:38.261Z,19.70
2023-01-12T20:32:09.404Z,20.40
2023-01-12T20:34:40.399Z,21.70
2023-01-12T20:37:11.486Z,22.10
2023-01-12T20:39:42.120Z,24.80
2023-01-12T20:42:13.262Z,29.40
2023-01-12T20:44:44.223Z,24.10
2023-01-12T20:47:15.399Z,32.80
2023-01-12T20:49:46.175Z,30.80
2023-01-12T20:52:16.969Z,21.40
2023-01-12T20:54:47.851Z,26.10
2023-01-12T20:57:19.460Z,19.50
2023-01-12T20:59:50.450Z,25.30
2023-01-12T21:02:22.520Z,22.40
2023-01-12T21:04:53.339Z,24.80
2023-01-12T21:07:24.617Z,22.60
2023-01-12T21:09:55.322Z,25.00
2023-01-12T21:12:27.664Z,21.00
2023-01-12T21:14:59.499Z,25.20
2023-01-12T21:17:31.252Z,20.90
2023-01-12T21:20:01.932Z,16.80
2023-01-12T21:22:33.386Z,23.50
2023-01-12T21:25:04.337Z,21.60
2023-01-12T21:27:35.364Z,17.90
2023-01-12T21:30:06.375Z,20.70
2023-01-12T21:32:37.345Z,19.70
2023-01-12T21:35:08.741Z,18.10
2023-01-12T21:37:39.843Z,20.40
2023-01-12T21:40:11.672Z,22.80
2023-01-12T21:43:00.249Z,17.40
2023-01-12T21:45:31.603Z,17.80
2023-01-12T21:48:02.493Z,17.30
2023-01-12T21:50:34.721Z,22.70
2023-01-12T21:53:06.482Z,17.70
2023-01-12T21:55:37.203Z,19.40
2023-01-12T21:58:08.178Z,20.70
2023-01-12T22:00:38.924Z,21.90
2023-01-12T22:03:10.024Z,22.90
2023-01-12T22:05:40.688Z,20.00
2023-01-12T22:08:11.886Z,23.20
2023-01-12T22:10:42.589Z,17.80
2023-01-12T22:13:14.801Z,19.30
2023-01-12T22:15:46.437Z,17.80
2023-01-12T22:18:17.487Z,19.10
2023-01-12T22:20:49.134Z,16.90
2023-01-12T22:23:20.113Z,18.90
2023-01-12T22:25:51.015Z,23.20
2023-01-12T22:28:21.949Z,19.80
2023-01-12T22:30:53.287Z,17.70
2023-01-12T22:33:24.496Z,26.00
2023-01-12T22:35:55.363Z,16.10
2023-01-12T22:38:26.426Z,15.30
2023-01-12T22:40:58.263Z,21.80
2023-01-12T22:43:29.856Z,16.10
2023-01-12T22:46:00.904Z,19.00
2023-01-12T22:48:31.908Z,18.20
2023-01-12T22:51:02.640Z,19.00
2023-01-12T22:53:33.581Z,18.60
2023-01-12T22:56:05.589Z,19.50
2023-01-12T22:58:36.785Z,15.20
2023-01-12T23:01:08.471Z,15.70
2023-01-12T23:03:39.586Z,14.40
2023-01-12T23:06:12.072Z,14.20
2023-01-12T23:08:43.216Z,17.30
2023-01-12T23:11:15.061Z,15.10
2023-01-12T23:13:46.621Z,21.60
2023-01-12T23:16:18.288Z,17.10
2023-01-12T23:18:50.549Z,17.30
2023-01-12T23:21:22.563Z,11.30
2023-01-12T23:23:54.476Z,13.10
2023-01-12T23:26:26.220Z,10.40
2023-01-12T23:28:59.460Z,11.20
2023-01-12T23:31:31.973Z,12.50
2023-01-12T23:34:03.763Z,10.90
2023-01-12T23:36:36.226Z,12.20
2023-01-12T23:39:08.186Z,10.20
2023-01-12T23:41:39.378Z,9.50
2023-01-12T23:44:11.295Z,10.80
2023-01-12T23:46:43.486Z,7.60
2023-01-12T23:49:14.601Z,6.80
2023-01-12T23:51:45.316Z,8.80
2023-01-12T23:54:18.514Z,9.00
2023-01-12T23:56:52.009Z,8.70
2023-01-12T23:59:24.073Z,8.80
